ZKJEE NZGM-NZKM

Flight info

Callsign ZKJEE
Flight time 0h 33m
Altitude 9000
Route WS Q197 BIANY
Aircraft DHC6/L-SDFGR/C

Departure

Time 2026-04-29 06:21
Airport Greymouth Airport (NZGM)

Arrival

Time 2026-04-29 06:54
Airport Karamea Airport (NZKM)
Time Latitude Longitude Altitude Speed Heading
2026-04-29 06:17 -42.45848 171.19334 24 ft 0 kts 211°
2026-04-29 06:19 -42.45849 171.19334 24 ft 0 kts 211°
2026-04-29 06:20 -42.46013 171.19200 24 ft 70 kts 211°
2026-04-29 06:20 -42.46607 171.18715 73 ft 117 kts 211°
2026-04-29 06:20 -42.47288 171.18159 423 ft 115 kts 211°
2026-04-29 06:21 -42.47935 171.17503 733 ft 123 kts 235°
2026-04-29 06:21 -42.47998 171.16408 1104 ft 122 kts 294°
2026-04-29 06:21 -42.47298 171.15762 1461 ft 133 kts 348°
2026-04-29 06:21 -42.46395 171.16085 1839 ft 138 kts 22°
2026-04-29 06:22 -42.45533 171.16672 2198 ft 141 kts 21°
2026-04-29 06:22 -42.44649 171.17292 2521 ft 146 kts 20°
2026-04-29 06:22 -42.43714 171.17941 2883 ft 149 kts 20°
2026-04-29 06:22 -42.42794 171.18574 3230 ft 152 kts 19°
2026-04-29 06:23 -42.41829 171.19235 3589 ft 154 kts 18°
2026-04-29 06:23 -42.40867 171.19888 3941 ft 156 kts 18°
2026-04-29 06:23 -42.39899 171.20538 4290 ft 157 kts 17°
2026-04-29 06:23 -42.38910 171.21197 4644 ft 158 kts 16°
2026-04-29 06:24 -42.37930 171.21846 4991 ft 159 kts 15°
2026-04-29 06:24 -42.36919 171.22508 5342 ft 161 kts 15°
2026-04-29 06:24 -42.35918 171.23154 5693 ft 162 kts 15°
2026-04-29 06:24 -42.34880 171.23818 6052 ft 162 kts 15°
2026-04-29 06:25 -42.33875 171.24457 6397 ft 162 kts 15°
2026-04-29 06:25 -42.32836 171.25117 6753 ft 163 kts 15°
2026-04-29 06:25 -42.31813 171.25766 7102 ft 163 kts 15°
2026-04-29 06:25 -42.30792 171.26411 7449 ft 162 kts 15°
2026-04-29 06:26 -42.29779 171.27050 7794 ft 162 kts 15°
2026-04-29 06:26 -42.28742 171.27686 8147 ft 162 kts 14°
2026-04-29 06:26 -42.27731 171.28295 8491 ft 161 kts 14°
2026-04-29 06:26 -42.26709 171.28912 8820 ft 158 kts 14°
2026-04-29 06:27 -42.25681 171.29526 8957 ft 167 kts 14°
2026-04-29 06:27 -42.24598 171.30168 9003 ft 178 kts 15°
2026-04-29 06:27 -42.23421 171.30863 9008 ft 186 kts 15°
2026-04-29 06:27 -42.22215 171.31569 9006 ft 191 kts 15°
2026-04-29 06:28 -42.20988 171.32280 9003 ft 195 kts 15°
2026-04-29 06:28 -42.19740 171.33000 9001 ft 197 kts 15°
2026-04-29 06:28 -42.18469 171.33732 9001 ft 198 kts 15°
2026-04-29 06:28 -42.17207 171.34459 9001 ft 198 kts 15°
2026-04-29 06:29 -42.15939 171.35188 8999 ft 199 kts 15°
2026-04-29 06:29 -42.14661 171.35922 9000 ft 199 kts 15°
2026-04-29 06:29 -42.13374 171.36662 9000 ft 199 kts 15°
2026-04-29 06:29 -42.12115 171.37386 9000 ft 199 kts 15°
2026-04-29 06:30 -42.10832 171.38123 9001 ft 200 kts 15°
2026-04-29 06:30 -42.08271 171.39570 9000 ft 199 kts 14°
2026-04-29 06:30 -42.06985 171.40276 9000 ft 199 kts 14°
2026-04-29 06:31 -42.05692 171.40985 9000 ft 199 kts 14°
2026-04-29 06:31 -42.04402 171.41691 8999 ft 199 kts 14°
2026-04-29 06:31 -42.03124 171.42391 9000 ft 199 kts 14°
2026-04-29 06:31 -42.01837 171.43096 9000 ft 199 kts 14°
2026-04-29 06:32 -42.00559 171.43795 9000 ft 200 kts 14°
2026-04-29 06:32 -41.99264 171.44505 9001 ft 200 kts 14°
2026-04-29 06:32 -41.97989 171.45202 9001 ft 200 kts 14°
2026-04-29 06:32 -41.96684 171.45916 8999 ft 200 kts 14°
2026-04-29 06:33 -41.95395 171.46622 9000 ft 200 kts 14°
2026-04-29 06:33 -41.94109 171.47326 9000 ft 200 kts 14°
2026-04-29 06:33 -41.92806 171.48038 9001 ft 200 kts 14°
2026-04-29 06:33 -41.91528 171.48737 9001 ft 200 kts 14°
2026-04-29 06:34 -41.90237 171.49443 9001 ft 200 kts 14°
2026-04-29 06:34 -41.88935 171.50154 8999 ft 201 kts 14°
2026-04-29 06:34 -41.87644 171.50846 9001 ft 200 kts 14°
2026-04-29 06:34 -41.86348 171.51542 9002 ft 200 kts 14°
2026-04-29 06:35 -41.85070 171.52221 9001 ft 200 kts 14°
2026-04-29 06:35 -41.83758 171.52927 9000 ft 200 kts 14°
2026-04-29 06:35 -41.82476 171.53610 9000 ft 201 kts 14°
2026-04-29 06:35 -41.81178 171.54304 9002 ft 200 kts 14°
2026-04-29 06:36 -41.79880 171.54994 8999 ft 201 kts 14°
2026-04-29 06:36 -41.78589 171.55688 9000 ft 200 kts 14°
2026-04-29 06:36 -41.77290 171.56377 9001 ft 201 kts 14°
2026-04-29 06:36 -41.75991 171.57069 9000 ft 201 kts 14°
2026-04-29 06:37 -41.74699 171.57761 9000 ft 201 kts 14°
2026-04-29 06:37 -41.73391 171.58479 8998 ft 201 kts 15°
2026-04-29 06:37 -41.72117 171.59202 8999 ft 201 kts 15°
2026-04-29 06:37 -41.70822 171.59939 8999 ft 201 kts 15°
2026-04-29 06:38 -41.69544 171.60668 9000 ft 201 kts 15°
2026-04-29 06:38 -41.68248 171.61406 9000 ft 201 kts 15°
2026-04-29 06:38 -41.66967 171.62137 9000 ft 201 kts 15°
2026-04-29 06:38 -41.65673 171.62875 9000 ft 201 kts 15°
2026-04-29 06:39 -41.64395 171.63603 8999 ft 201 kts 15°
2026-04-29 06:39 -41.63086 171.64347 8999 ft 201 kts 15°
2026-04-29 06:39 -41.61812 171.65053 8998 ft 201 kts 15°
2026-04-29 06:39 -41.60516 171.65782 9001 ft 201 kts 15°
2026-04-29 06:40 -41.59219 171.66504 8997 ft 201 kts 15°
2026-04-29 06:40 -41.57938 171.67218 8998 ft 201 kts 14°
2026-04-29 06:40 -41.56652 171.67937 8999 ft 201 kts 15°
2026-04-29 06:40 -41.55361 171.68654 8999 ft 201 kts 15°
2026-04-29 06:41 -41.54079 171.69373 8998 ft 201 kts 15°
2026-04-29 06:41 -41.52792 171.70102 8998 ft 201 kts 15°
2026-04-29 06:41 -41.51506 171.70832 8998 ft 201 kts 15°
2026-04-29 06:41 -41.50218 171.71562 8999 ft 201 kts 15°
2026-04-29 06:42 -41.48934 171.72291 8998 ft 201 kts 15°
2026-04-29 06:42 -41.47634 171.73018 8997 ft 201 kts 14°
2026-04-29 06:42 -41.46348 171.73725 8998 ft 201 kts 15°
2026-04-29 06:42 -41.45055 171.74450 8998 ft 201 kts 15°
2026-04-29 06:43 -41.43771 171.75156 8995 ft 201 kts 15°
2026-04-29 06:43 -41.42571 171.76088 8744 ft 202 kts 39°
2026-04-29 06:43 -41.41965 171.77757 8500 ft 199 kts 78°
2026-04-29 06:43 -41.41850 171.79541 8265 ft 190 kts 89°
2026-04-29 06:44 -41.41812 171.81268 8011 ft 186 kts 89°
2026-04-29 06:44 -41.41764 171.82980 7758 ft 182 kts 88°
2026-04-29 06:44 -41.41695 171.84654 7506 ft 180 kts 87°
2026-04-29 06:44 -41.41608 171.86301 7255 ft 179 kts 86°
2026-04-29 06:45 -41.41505 171.87943 7006 ft 178 kts 85°
2026-04-29 06:45 -41.41394 171.89584 6756 ft 177 kts 85°
2026-04-29 06:45 -41.41274 171.91200 6506 ft 176 kts 84°
2026-04-29 06:45 -41.41142 171.92846 6253 ft 175 kts 84°
2026-04-29 06:46 -41.41012 171.94432 6004 ft 175 kts 85°
2026-04-29 06:46 -41.40886 171.96055 5752 ft 174 kts 85°
2026-04-29 06:46 -41.40757 171.97645 5502 ft 173 kts 85°
2026-04-29 06:46 -41.40630 171.99232 5251 ft 173 kts 84°
2026-04-29 06:47 -41.40499 172.00818 4999 ft 172 kts 85°
2026-04-29 06:47 -41.40300 172.02382 4738 ft 171 kts 67°
2026-04-29 06:47 -41.39530 172.03471 4493 ft 159 kts 22°
2026-04-29 06:47 -41.38547 172.04077 4254 ft 153 kts 14°
2026-04-29 06:48 -41.37580 172.04635 4004 ft 152 kts 16°
2026-04-29 06:48 -41.36627 172.05230 3752 ft 151 kts 19°
2026-04-29 06:48 -41.35695 172.05854 3501 ft 150 kts 21°
2026-04-29 06:48 -41.35117 172.06260 3370 ft 142 kts 21°
2026-04-29 06:49 -41.35033 172.06319 3349 ft 140 kts 21°
2026-04-29 06:49 -41.34189 172.06925 3091 ft 134 kts 22°
2026-04-29 06:50 -41.33369 172.07522 2834 ft 131 kts 22°
2026-04-29 06:50 -41.32648 172.08033 2733 ft 105 kts 34°
2026-04-29 06:50 -41.32045 172.08482 2509 ft 94 kts 34°
2026-04-29 06:50 -41.31530 172.08866 2272 ft 79 kts 37°
2026-04-29 06:51 -41.31046 172.09220 1981 ft 81 kts 23°
2026-04-29 06:51 -41.30537 172.09553 1714 ft 83 kts 12°
2026-04-29 06:51 -41.29969 172.09667 1468 ft 83 kts
2026-04-29 06:51 -41.29390 172.09763 1216 ft 85 kts
2026-04-29 06:52 -41.28802 172.09858 980 ft 84 kts
2026-04-29 06:52 -41.28283 172.09931 837 ft 78 kts
2026-04-29 06:52 -41.27722 172.09992 635 ft 82 kts
2026-04-29 06:52 -41.27158 172.10052 504 ft 79 kts
2026-04-29 06:53 -41.26615 172.10074 415 ft 78 kts 355°
2026-04-29 06:53 -41.26077 172.09955 344 ft 81 kts 347°
2026-04-29 06:53 -41.25530 172.09846 308 ft 78 kts 360°
2026-04-29 06:53 -41.25001 172.09967 277 ft 78 kts 15°
2026-04-29 06:54 -41.24517 172.10270 254 ft 76 kts 27°
2026-04-29 06:54 -41.24049 172.10415 110 ft 63 kts 13°
2026-04-29 06:54 -41.23802 172.10542 37 ft 43 kts 25°
2026-04-29 06:54 -41.23708 172.10602 37 ft 0 kts 27°